sensor_id;sensor_type;location;lat;lon;timestamp;P1;durP1;ratioP1;P2;durP2;ratioP2
67602;SDS011;54417;47.454;18.918;2024-02-26T00:00:56;27.45;;;17.08;;
67602;SDS011;54417;47.454;18.918;2024-02-26T00:06:00;28.35;;;17.52;;
67602;SDS011;54417;47.454;18.918;2024-02-26T00:11:09;26.02;;;17.02;;
67602;SDS011;54417;47.454;18.918;2024-02-26T00:16:18;28.40;;;18.33;;
67602;SDS011;54417;47.454;18.918;2024-02-26T00:21:22;31.05;;;19.13;;
67602;SDS011;54417;47.454;18.918;2024-02-26T00:26:27;27.73;;;17.70;;
67602;SDS011;54417;47.454;18.918;2024-02-26T00:31:36;25.17;;;16.95;;
67602;SDS011;54417;47.454;18.918;2024-02-26T00:36:45;24.58;;;16.10;;
67602;SDS011;54417;47.454;18.918;2024-02-26T00:41:55;22.23;;;14.88;;
67602;SDS011;54417;47.454;18.918;2024-02-26T00:47:04;23.23;;;15.15;;
67602;SDS011;54417;47.454;18.918;2024-02-26T00:52:13;20.80;;;14.65;;
67602;SDS011;54417;47.454;18.918;2024-02-26T00:57:23;22.02;;;14.50;;
67602;SDS011;54417;47.454;18.918;2024-02-26T01:02:32;20.17;;;13.67;;
67602;SDS011;54417;47.454;18.918;2024-02-26T01:07:41;18.98;;;13.07;;
67602;SDS011;54417;47.454;18.918;2024-02-26T01:12:51;20.20;;;12.98;;
67602;SDS011;54417;47.454;18.918;2024-02-26T01:18:00;20.75;;;13.38;;
67602;SDS011;54417;47.454;18.918;2024-02-26T01:23:09;19.90;;;12.63;;
67602;SDS011;54417;47.454;18.918;2024-02-26T01:28:14;21.35;;;13.77;;
67602;SDS011;54417;47.454;18.918;2024-02-26T01:33:18;19.73;;;12.68;;
67602;SDS011;54417;47.454;18.918;2024-02-26T01:38:22;19.58;;;12.77;;
67602;SDS011;54417;47.454;18.918;2024-02-26T01:43:32;16.75;;;11.95;;
67602;SDS011;54417;47.454;18.918;2024-02-26T01:48:41;18.02;;;12.05;;
67602;SDS011;54417;47.454;18.918;2024-02-26T01:53:46;17.23;;;11.70;;
67602;SDS011;54417;47.454;18.918;2024-02-26T01:58:55;21.05;;;12.27;;
67602;SDS011;54417;47.454;18.918;2024-02-26T02:03:59;18.13;;;11.73;;
67602;SDS011;54417;47.454;18.918;2024-02-26T02:09:03;19.40;;;12.13;;
67602;SDS011;54417;47.454;18.918;2024-02-26T02:14:15;15.67;;;11.10;;
67602;SDS011;54417;47.454;18.918;2024-02-26T02:19:24;16.15;;;11.40;;
67602;SDS011;54417;47.454;18.918;2024-02-26T02:24:34;17.75;;;11.85;;
67602;SDS011;54417;47.454;18.918;2024-02-26T02:29:42;14.63;;;10.25;;
67602;SDS011;54417;47.454;18.918;2024-02-26T02:34:47;19.67;;;11.88;;
67602;SDS011;54417;47.454;18.918;2024-02-26T02:39:57;16.95;;;10.48;;
67602;SDS011;54417;47.454;18.918;2024-02-26T02:45:06;18.30;;;12.10;;
67602;SDS011;54417;47.454;18.918;2024-02-26T02:50:10;18.05;;;11.98;;
67602;SDS011;54417;47.454;18.918;2024-02-26T02:55:20;17.02;;;12.02;;
67602;SDS011;54417;47.454;18.918;2024-02-26T03:00:29;18.13;;;12.48;;
67602;SDS011;54417;47.454;18.918;2024-02-26T03:05:38;21.27;;;13.70;;
67602;SDS011;54417;47.454;18.918;2024-02-26T03:10:48;22.20;;;12.45;;
67602;SDS011;54417;47.454;18.918;2024-02-26T03:15:57;17.85;;;12.05;;
67602;SDS011;54417;47.454;18.918;2024-02-26T03:21:01;22.27;;;11.75;;
67602;SDS011;54417;47.454;18.918;2024-02-26T03:26:11;17.35;;;12.10;;
67602;SDS011;54417;47.454;18.918;2024-02-26T03:31:21;17.48;;;11.07;;
67602;SDS011;54417;47.454;18.918;2024-02-26T03:36:30;15.52;;;11.10;;
67602;SDS011;54417;47.454;18.918;2024-02-26T03:41:40;17.40;;;12.25;;
67602;SDS011;54417;47.454;18.918;2024-02-26T03:46:44;21.17;;;12.65;;
67602;SDS011;54417;47.454;18.918;2024-02-26T03:51:48;20.60;;;12.80;;
67602;SDS011;54417;47.454;18.918;2024-02-26T03:56:58;27.00;;;14.57;;
67602;SDS011;54417;47.454;18.918;2024-02-26T04:02:03;25.25;;;14.55;;
67602;SDS011;54417;47.454;18.918;2024-02-26T04:07:13;21.52;;;13.10;;
67602;SDS011;54417;47.454;18.918;2024-02-26T04:12:26;26.75;;;14.80;;
67602;SDS011;54417;47.454;18.918;2024-02-26T04:17:35;26.92;;;14.60;;
67602;SDS011;54417;47.454;18.918;2024-02-26T04:22:39;29.15;;;15.35;;
67602;SDS011;54417;47.454;18.918;2024-02-26T04:27:45;25.60;;;14.73;;
67602;SDS011;54417;47.454;18.918;2024-02-26T04:32:53;20.83;;;13.57;;
67602;SDS011;54417;47.454;18.918;2024-02-26T04:38:02;23.02;;;12.80;;
67602;SDS011;54417;47.454;18.918;2024-02-26T04:43:09;19.95;;;13.55;;
67602;SDS011;54417;47.454;18.918;2024-02-26T04:48:17;24.45;;;13.57;;
67602;SDS011;54417;47.454;18.918;2024-02-26T04:53:27;23.17;;;14.40;;
67602;SDS011;54417;47.454;18.918;2024-02-26T04:58:37;23.38;;;14.00;;
67602;SDS011;54417;47.454;18.918;2024-02-26T05:03:41;23.38;;;14.32;;
67602;SDS011;54417;47.454;18.918;2024-02-26T05:08:49;25.15;;;13.50;;
67602;SDS011;54417;47.454;18.918;2024-02-26T05:14:00;19.75;;;12.60;;
67602;SDS011;54417;47.454;18.918;2024-02-26T05:19:09;21.37;;;12.30;;
67602;SDS011;54417;47.454;18.918;2024-02-26T05:24:13;20.10;;;14.27;;
67602;SDS011;54417;47.454;18.918;2024-02-26T05:29:19;19.42;;;12.80;;
67602;SDS011;54417;47.454;18.918;2024-02-26T05:34:28;26.52;;;13.52;;
67602;SDS011;54417;47.454;18.918;2024-02-26T05:39:37;23.50;;;15.00;;
67602;SDS011;54417;47.454;18.918;2024-02-26T05:44:43;25.98;;;15.68;;
67602;SDS011;54417;47.454;18.918;2024-02-26T05:49:52;27.48;;;15.10;;
67602;SDS011;54417;47.454;18.918;2024-02-26T05:55:02;27.60;;;15.80;;
67602;SDS011;54417;47.454;18.918;2024-02-26T06:00:08;24.10;;;14.13;;
67602;SDS011;54417;47.454;18.918;2024-02-26T06:05:22;31.73;;;16.02;;
67602;SDS011;54417;47.454;18.918;2024-02-26T06:10:25;25.65;;;16.48;;
67602;SDS011;54417;47.454;18.918;2024-02-26T06:15:35;31.58;;;19.17;;
67602;SDS011;54417;47.454;18.918;2024-02-26T06:20:39;29.10;;;17.65;;
67602;SDS011;54417;47.454;18.918;2024-02-26T06:25:48;27.77;;;17.92;;
67602;SDS011;54417;47.454;18.918;2024-02-26T06:30:53;28.27;;;17.52;;
67602;SDS011;54417;47.454;18.918;2024-02-26T06:36:02;30.45;;;17.65;;
67602;SDS011;54417;47.454;18.918;2024-02-26T06:41:12;25.83;;;16.58;;
67602;SDS011;54417;47.454;18.918;2024-02-26T06:46:22;26.77;;;16.50;;
67602;SDS011;54417;47.454;18.918;2024-02-26T06:56:40;28.38;;;17.02;;
67602;SDS011;54417;47.454;18.918;2024-02-26T07:01:53;26.77;;;15.88;;
67602;SDS011;54417;47.454;18.918;2024-02-26T07:06:57;30.60;;;16.00;;
67602;SDS011;54417;47.454;18.918;2024-02-26T07:12:06;26.80;;;15.15;;
67602;SDS011;54417;47.454;18.918;2024-02-26T07:17:11;24.20;;;14.98;;
67602;SDS011;54417;47.454;18.918;2024-02-26T07:22:15;33.20;;;17.80;;
67602;SDS011;54417;47.454;18.918;2024-02-26T07:27:24;31.00;;;18.02;;
67602;SDS011;54417;47.454;18.918;2024-02-26T07:32:34;27.55;;;15.45;;
67602;SDS011;54417;47.454;18.918;2024-02-26T07:37:41;29.20;;;15.82;;
67602;SDS011;54417;47.454;18.918;2024-02-26T07:42:44;28.25;;;17.77;;
67602;SDS011;54417;47.454;18.918;2024-02-26T07:47:50;27.23;;;17.23;;
67602;SDS011;54417;47.454;18.918;2024-02-26T07:52:59;26.70;;;18.05;;
67602;SDS011;54417;47.454;18.918;2024-02-26T07:58:03;25.58;;;18.13;;
67602;SDS011;54417;47.454;18.918;2024-02-26T08:03:19;26.15;;;17.30;;
67602;SDS011;54417;47.454;18.918;2024-02-26T08:08:28;28.03;;;16.90;;
67602;SDS011;54417;47.454;18.918;2024-02-26T08:13:33;24.88;;;17.52;;
67602;SDS011;54417;47.454;18.918;2024-02-26T08:18:44;22.40;;;15.75;;
67602;SDS011;54417;47.454;18.918;2024-02-26T08:23:48;23.25;;;16.13;;
67602;SDS011;54417;47.454;18.918;2024-02-26T08:28:56;22.05;;;16.20;;
67602;SDS011;54417;47.454;18.918;2024-02-26T08:39:18;16.65;;;13.05;;
67602;SDS011;54417;47.454;18.918;2024-02-26T08:44:27;20.63;;;16.33;;
67602;SDS011;54417;47.454;18.918;2024-02-26T08:49:32;17.00;;;12.88;;
67602;SDS011;54417;47.454;18.918;2024-02-26T08:54:41;16.97;;;12.40;;
67602;SDS011;54417;47.454;18.918;2024-02-26T08:59:50;18.20;;;13.32;;
67602;SDS011;54417;47.454;18.918;2024-02-26T09:05:00;17.13;;;12.80;;
67602;SDS011;54417;47.454;18.918;2024-02-26T09:10:09;21.73;;;14.13;;
67602;SDS011;54417;47.454;18.918;2024-02-26T09:15:18;19.38;;;14.05;;
67602;SDS011;54417;47.454;18.918;2024-02-26T09:20:24;22.58;;;15.52;;
67602;SDS011;54417;47.454;18.918;2024-02-26T09:25:33;24.53;;;16.10;;
67602;SDS011;54417;47.454;18.918;2024-02-26T09:30:43;18.63;;;14.80;;
67602;SDS011;54417;47.454;18.918;2024-02-26T09:35:53;21.27;;;15.35;;
67602;SDS011;54417;47.454;18.918;2024-02-26T09:40:57;17.30;;;13.10;;
67602;SDS011;54417;47.454;18.918;2024-02-26T09:46:07;19.65;;;14.90;;
67602;SDS011;54417;47.454;18.918;2024-02-26T09:51:13;20.05;;;14.73;;
67602;SDS011;54417;47.454;18.918;2024-02-26T09:56:23;22.95;;;14.98;;
67602;SDS011;54417;47.454;18.918;2024-02-26T10:01:27;20.08;;;15.10;;
67602;SDS011;54417;47.454;18.918;2024-02-26T10:06:40;18.73;;;13.43;;
67602;SDS011;54417;47.454;18.918;2024-02-26T10:11:51;19.15;;;13.68;;
67602;SDS011;54417;47.454;18.918;2024-02-26T10:17:00;19.75;;;14.00;;
67602;SDS011;54417;47.454;18.918;2024-02-26T10:22:05;22.33;;;14.65;;
67602;SDS011;54417;47.454;18.918;2024-02-26T10:27:14;22.93;;;16.40;;
67602;SDS011;54417;47.454;18.918;2024-02-26T10:32:23;16.48;;;13.57;;
67602;SDS011;54417;47.454;18.918;2024-02-26T10:37:34;19.63;;;13.90;;
67602;SDS011;54417;47.454;18.918;2024-02-26T10:42:43;16.05;;;12.25;;
67602;SDS011;54417;47.454;18.918;2024-02-26T10:47:52;12.03;;;9.60;;
67602;SDS011;54417;47.454;18.918;2024-02-26T10:53:03;13.57;;;9.70;;
67602;SDS011;54417;47.454;18.918;2024-02-26T10:58:15;15.35;;;10.90;;
67602;SDS011;54417;47.454;18.918;2024-02-26T11:03:25;13.47;;;8.03;;
67602;SDS011;54417;47.454;18.918;2024-02-26T11:08:31;13.45;;;7.72;;
67602;SDS011;54417;47.454;18.918;2024-02-26T11:13:40;13.73;;;7.90;;
67602;SDS011;54417;47.454;18.918;2024-02-26T11:18:55;15.60;;;8.98;;
67602;SDS011;54417;47.454;18.918;2024-02-26T11:24:06;14.40;;;10.07;;
67602;SDS011;54417;47.454;18.918;2024-02-26T11:29:17;16.20;;;9.85;;
67602;SDS011;54417;47.454;18.918;2024-02-26T11:34:29;12.73;;;9.10;;
67602;SDS011;54417;47.454;18.918;2024-02-26T11:39:34;13.27;;;9.43;;
67602;SDS011;54417;47.454;18.918;2024-02-26T11:44:43;13.70;;;8.40;;
67602;SDS011;54417;47.454;18.918;2024-02-26T11:49:48;14.85;;;9.68;;
67602;SDS011;54417;47.454;18.918;2024-02-26T11:54:59;11.00;;;7.50;;
67602;SDS011;54417;47.454;18.918;2024-02-26T12:00:10;10.60;;;7.88;;
67602;SDS011;54417;47.454;18.918;2024-02-26T12:05:16;9.27;;;7.03;;
67602;SDS011;54417;47.454;18.918;2024-02-26T12:10:30;11.10;;;6.35;;
67602;SDS011;54417;47.454;18.918;2024-02-26T12:15:38;7.95;;;6.15;;
67602;SDS011;54417;47.454;18.918;2024-02-26T12:20:57;14.98;;;6.80;;
67602;SDS011;54417;47.454;18.918;2024-02-26T12:26:08;10.77;;;7.65;;
67602;SDS011;54417;47.454;18.918;2024-02-26T12:31:17;14.05;;;7.70;;
67602;SDS011;54417;47.454;18.918;2024-02-26T12:36:21;13.10;;;9.90;;
67602;SDS011;54417;47.454;18.918;2024-02-26T12:41:27;16.23;;;10.35;;
67602;SDS011;54417;47.454;18.918;2024-02-26T12:46:37;11.70;;;8.00;;
67602;SDS011;54417;47.454;18.918;2024-02-26T12:51:45;23.95;;;11.50;;
67602;SDS011;54417;47.454;18.918;2024-02-26T12:56:52;21.60;;;11.48;;
67602;SDS011;54417;47.454;18.918;2024-02-26T13:02:00;8.65;;;6.07;;
67602;SDS011;54417;47.454;18.918;2024-02-26T13:07:14;8.77;;;6.53;;
67602;SDS011;54417;47.454;18.918;2024-02-26T13:12:24;12.80;;;5.10;;
67602;SDS011;54417;47.454;18.918;2024-02-26T13:17:33;17.23;;;9.82;;
67602;SDS011;54417;47.454;18.918;2024-02-26T13:22:37;17.08;;;9.13;;
67602;SDS011;54417;47.454;18.918;2024-02-26T13:27:42;99.68;;;37.78;;
67602;SDS011;54417;47.454;18.918;2024-02-26T13:32:51;26.02;;;12.32;;
67602;SDS011;54417;47.454;18.918;2024-02-26T13:38:00;32.05;;;15.00;;
67602;SDS011;54417;47.454;18.918;2024-02-26T13:43:11;18.90;;;9.23;;
67602;SDS011;54417;47.454;18.918;2024-02-26T13:48:15;54.30;;;23.30;;
67602;SDS011;54417;47.454;18.918;2024-02-26T13:53:19;3.45;;;2.88;;
67602;SDS011;54417;47.454;18.918;2024-02-26T13:58:32;5.47;;;3.05;;
67602;SDS011;54417;47.454;18.918;2024-02-26T14:03:41;6.32;;;4.20;;
67602;SDS011;54417;47.454;18.918;2024-02-26T14:08:50;5.55;;;2.88;;
67602;SDS011;54417;47.454;18.918;2024-02-26T14:13:55;4.85;;;2.35;;
67602;SDS011;54417;47.454;18.918;2024-02-26T14:19:03;4.97;;;2.60;;
67602;SDS011;54417;47.454;18.918;2024-02-26T14:24:07;3.47;;;2.30;;
67602;SDS011;54417;47.454;18.918;2024-02-26T14:29:13;4.50;;;3.80;;
67602;SDS011;54417;47.454;18.918;2024-02-26T14:34:23;7.90;;;5.00;;
67602;SDS011;54417;47.454;18.918;2024-02-26T14:39:27;9.10;;;6.15;;
67602;SDS011;54417;47.454;18.918;2024-02-26T14:44:37;10.70;;;8.95;;
67602;SDS011;54417;47.454;18.918;2024-02-26T14:49:41;11.23;;;9.13;;
67602;SDS011;54417;47.454;18.918;2024-02-26T14:54:50;10.13;;;9.07;;
67602;SDS011;54417;47.454;18.918;2024-02-26T15:00:00;14.07;;;9.48;;
67602;SDS011;54417;47.454;18.918;2024-02-26T15:05:12;14.00;;;10.18;;
67602;SDS011;54417;47.454;18.918;2024-02-26T15:10:23;12.70;;;9.70;;
67602;SDS011;54417;47.454;18.918;2024-02-26T15:15:33;8.70;;;7.80;;
67602;SDS011;54417;47.454;18.918;2024-02-26T15:20:44;12.32;;;9.20;;
67602;SDS011;54417;47.454;18.918;2024-02-26T15:25:53;18.90;;;9.93;;
67602;SDS011;54417;47.454;18.918;2024-02-26T15:31:03;12.85;;;9.13;;
67602;SDS011;54417;47.454;18.918;2024-02-26T15:36:12;12.57;;;9.63;;
67602;SDS011;54417;47.454;18.918;2024-02-26T15:41:21;15.20;;;10.73;;
67602;SDS011;54417;47.454;18.918;2024-02-26T15:46:31;18.02;;;9.80;;
67602;SDS011;54417;47.454;18.918;2024-02-26T15:51:40;16.90;;;10.30;;
67602;SDS011;54417;47.454;18.918;2024-02-26T15:56:49;13.88;;;9.63;;
67602;SDS011;54417;47.454;18.918;2024-02-26T16:01:59;19.08;;;10.55;;
67602;SDS011;54417;47.454;18.918;2024-02-26T16:07:14;17.95;;;10.68;;
67602;SDS011;54417;47.454;18.918;2024-02-26T16:12:24;15.35;;;9.98;;
67602;SDS011;54417;47.454;18.918;2024-02-26T16:17:46;14.65;;;11.38;;
67602;SDS011;54417;47.454;18.918;2024-02-26T16:22:56;14.73;;;11.57;;
67602;SDS011;54417;47.454;18.918;2024-02-26T16:28:04;23.60;;;13.55;;
67602;SDS011;54417;47.454;18.918;2024-02-26T16:33:09;20.83;;;13.02;;
67602;SDS011;54417;47.454;18.918;2024-02-26T16:38:19;22.70;;;16.35;;
67602;SDS011;54417;47.454;18.918;2024-02-26T16:43:27;23.85;;;15.85;;
67602;SDS011;54417;47.454;18.918;2024-02-26T16:48:34;30.27;;;16.95;;
67602;SDS011;54417;47.454;18.918;2024-02-26T16:53:38;27.52;;;17.70;;
67602;SDS011;54417;47.454;18.918;2024-02-26T16:58:48;28.60;;;17.35;;
67602;SDS011;54417;47.454;18.918;2024-02-26T17:03:58;33.08;;;19.35;;
67602;SDS011;54417;47.454;18.918;2024-02-26T17:09:07;32.67;;;19.63;;
67602;SDS011;54417;47.454;18.918;2024-02-26T17:14:16;26.75;;;18.60;;
67602;SDS011;54417;47.454;18.918;2024-02-26T17:19:21;36.85;;;22.55;;
67602;SDS011;54417;47.454;18.918;2024-02-26T17:24:31;29.30;;;21.27;;
67602;SDS011;54417;47.454;18.918;2024-02-26T17:29:35;31.27;;;21.02;;
67602;SDS011;54417;47.454;18.918;2024-02-26T17:34:45;37.10;;;23.13;;
67602;SDS011;54417;47.454;18.918;2024-02-26T17:39:50;30.50;;;20.77;;
67602;SDS011;54417;47.454;18.918;2024-02-26T17:45:00;32.15;;;21.25;;
67602;SDS011;54417;47.454;18.918;2024-02-26T17:50:11;35.72;;;23.75;;
67602;SDS011;54417;47.454;18.918;2024-02-26T17:55:20;45.40;;;25.37;;
67602;SDS011;54417;47.454;18.918;2024-02-26T18:00:29;41.30;;;25.95;;
67602;SDS011;54417;47.454;18.918;2024-02-26T18:05:41;35.38;;;23.40;;
67602;SDS011;54417;47.454;18.918;2024-02-26T18:10:45;37.78;;;22.80;;
67602;SDS011;54417;47.454;18.918;2024-02-26T18:15:54;38.22;;;23.80;;
67602;SDS011;54417;47.454;18.918;2024-02-26T18:21:01;79.00;;;32.80;;
67602;SDS011;54417;47.454;18.918;2024-02-26T18:26:10;61.15;;;29.05;;
67602;SDS011;54417;47.454;18.918;2024-02-26T18:31:20;56.17;;;26.87;;
67602;SDS011;54417;47.454;18.918;2024-02-26T18:36:30;54.63;;;26.90;;
67602;SDS011;54417;47.454;18.918;2024-02-26T18:41:34;46.83;;;24.17;;
67602;SDS011;54417;47.454;18.918;2024-02-26T18:46:43;41.22;;;25.02;;
67602;SDS011;54417;47.454;18.918;2024-02-26T18:51:54;42.63;;;25.33;;
67602;SDS011;54417;47.454;18.918;2024-02-26T18:57:03;44.67;;;22.05;;
67602;SDS011;54417;47.454;18.918;2024-02-26T19:02:12;41.20;;;22.23;;
67602;SDS011;54417;47.454;18.918;2024-02-26T19:07:17;46.72;;;22.40;;
67602;SDS011;54417;47.454;18.918;2024-02-26T19:12:21;44.83;;;24.52;;
67602;SDS011;54417;47.454;18.918;2024-02-26T19:17:27;42.33;;;26.58;;
67602;SDS011;54417;47.454;18.918;2024-02-26T19:22:32;38.38;;;25.30;;
67602;SDS011;54417;47.454;18.918;2024-02-26T19:27:35;45.63;;;27.13;;
67602;SDS011;54417;47.454;18.918;2024-02-26T19:32:39;48.83;;;25.40;;
67602;SDS011;54417;47.454;18.918;2024-02-26T19:37:44;37.40;;;23.73;;
67602;SDS011;54417;47.454;18.918;2024-02-26T19:42:53;41.20;;;23.45;;
67602;SDS011;54417;47.454;18.918;2024-02-26T19:47:57;49.15;;;25.48;;
67602;SDS011;54417;47.454;18.918;2024-02-26T19:53:03;40.67;;;24.15;;
67602;SDS011;54417;47.454;18.918;2024-02-26T19:58:12;49.60;;;24.63;;
67602;SDS011;54417;47.454;18.918;2024-02-26T20:03:15;42.05;;;26.27;;
67602;SDS011;54417;47.454;18.918;2024-02-26T20:08:26;60.08;;;30.00;;
67602;SDS011;54417;47.454;18.918;2024-02-26T20:13:36;60.05;;;28.20;;
67602;SDS011;54417;47.454;18.918;2024-02-26T20:18:40;57.70;;;31.60;;
67602;SDS011;54417;47.454;18.918;2024-02-26T20:23:45;56.67;;;29.52;;
67602;SDS011;54417;47.454;18.918;2024-02-26T20:28:54;49.00;;;29.27;;
67602;SDS011;54417;47.454;18.918;2024-02-26T20:34:03;51.80;;;29.83;;
67602;SDS011;54417;47.454;18.918;2024-02-26T20:39:09;44.13;;;26.40;;
67602;SDS011;54417;47.454;18.918;2024-02-26T20:44:13;45.10;;;27.23;;
67602;SDS011;54417;47.454;18.918;2024-02-26T20:49:22;49.25;;;27.75;;
67602;SDS011;54417;47.454;18.918;2024-02-26T20:54:32;40.80;;;25.35;;
67602;SDS011;54417;47.454;18.918;2024-02-26T20:59:36;39.45;;;24.90;;
67602;SDS011;54417;47.454;18.918;2024-02-26T21:05:27;42.53;;;24.15;;
67602;SDS011;54417;47.454;18.918;2024-02-26T21:10:19;48.60;;;25.02;;
67602;SDS011;54417;47.454;18.918;2024-02-26T21:15:26;39.28;;;23.80;;
67602;SDS011;54417;47.454;18.918;2024-02-26T21:20:30;37.90;;;22.73;;
67602;SDS011;54417;47.454;18.918;2024-02-26T21:25:41;32.50;;;21.77;;
67602;SDS011;54417;47.454;18.918;2024-02-26T21:30:50;40.70;;;21.77;;
67602;SDS011;54417;47.454;18.918;2024-02-26T21:35:58;34.97;;;21.83;;
67602;SDS011;54417;47.454;18.918;2024-02-26T21:41:08;33.95;;;21.23;;
67602;SDS011;54417;47.454;18.918;2024-02-26T21:46:18;31.70;;;22.27;;
67602;SDS011;54417;47.454;18.918;2024-02-26T21:51:27;33.70;;;23.40;;
67602;SDS011;54417;47.454;18.918;2024-02-26T21:56:37;34.95;;;23.52;;
67602;SDS011;54417;47.454;18.918;2024-02-26T22:01:46;33.60;;;21.80;;
67602;SDS011;54417;47.454;18.918;2024-02-26T22:06:55;42.20;;;24.83;;
67602;SDS011;54417;47.454;18.918;2024-02-26T22:12:00;40.08;;;25.23;;
67602;SDS011;54417;47.454;18.918;2024-02-26T22:17:09;40.70;;;25.80;;
67602;SDS011;54417;47.454;18.918;2024-02-26T22:22:18;38.33;;;25.42;;
67602;SDS011;54417;47.454;18.918;2024-02-26T22:27:28;36.33;;;23.55;;
67602;SDS011;54417;47.454;18.918;2024-02-26T22:32:32;41.25;;;24.30;;
67602;SDS011;54417;47.454;18.918;2024-02-26T22:37:41;35.55;;;23.33;;
67602;SDS011;54417;47.454;18.918;2024-02-26T22:42:51;38.70;;;24.65;;
67602;SDS011;54417;47.454;18.918;2024-02-26T22:47:58;35.75;;;23.20;;
67602;SDS011;54417;47.454;18.918;2024-02-26T22:53:02;33.15;;;22.58;;
67602;SDS011;54417;47.454;18.918;2024-02-26T22:58:12;33.50;;;21.20;;
67602;SDS011;54417;47.454;18.918;2024-02-26T23:03:16;31.17;;;21.20;;
67602;SDS011;54417;47.454;18.918;2024-02-26T23:08:25;34.45;;;22.35;;
67602;SDS011;54417;47.454;18.918;2024-02-26T23:13:35;42.72;;;27.88;;
67602;SDS011;54417;47.454;18.918;2024-02-26T23:18:45;50.40;;;28.65;;
67602;SDS011;54417;47.454;18.918;2024-02-26T23:23:49;50.47;;;32.50;;
67602;SDS011;54417;47.454;18.918;2024-02-26T23:28:55;62.25;;;34.80;;
67602;SDS011;54417;47.454;18.918;2024-02-26T23:33:59;57.35;;;35.92;;
67602;SDS011;54417;47.454;18.918;2024-02-26T23:39:08;56.33;;;33.38;;
67602;SDS011;54417;47.454;18.918;2024-02-26T23:44:18;44.53;;;29.00;;
67602;SDS011;54417;47.454;18.918;2024-02-26T23:49:27;44.30;;;30.35;;
67602;SDS011;54417;47.454;18.918;2024-02-26T23:54:36;43.83;;;27.33;;
67602;SDS011;54417;47.454;18.918;2024-02-26T23:59:47;45.33;;;28.40;;
